Time;durP1;ratioP1;P1;durP2;ratioP2;P2;SDS_P1;SDS_P2;PMS_P1;PMS_P2;Temp;Humidity;BMP_temperature;BMP_pressure;BME280_temperature;BME280_humidity;BME280_pressure;Samples;Min_cycle;Max_cycle;Signal;HPM_P1;HPM_P2
2021/08/01 00:00:24;;;;;;;;;;;;;;;21.89;77.71;99095.84;4808422;29;19956;-69
2021/08/01 00:02:53;;;;;;;;;;;;;;;21.83;77.74;99098.75;4808006;29;19929;-69
2021/08/01 00:05:22;;;;;;;;;;;;;;;21.77;77.77;99112.94;4807831;29;19932;-69
2021/08/01 00:07:52;;;;;;;;;;;;;;;21.70;78.04;99121.13;4808313;29;19931;-69
2021/08/01 00:10:22;;;;;;;;;;;;;;;21.40;78.05;99128.00;4807995;29;19925;-69
2021/08/01 00:12:51;;;;;;;;;;;;;;;21.31;78.94;99145.72;4808197;29;19960;-69
2021/08/01 00:15:19;;;;;;;;;;;;;;;21.32;79.41;99162.16;4807888;29;19929;-69
2021/08/01 00:17:48;;;;;;;;;;;;;;;21.31;79.67;99208.03;4808093;29;19932;-69
2021/08/01 00:20:17;;;;;;;;;;;;;;;21.10;80.54;99193.59;4807722;29;19925;-69
2021/08/01 00:22:45;;;;;;;;;;;;;;;20.97;81.30;99192.47;4807766;29;19925;-68
2021/08/01 00:25:15;;;;;;;;;;;;;;;21.01;82.02;99207.00;4808326;29;19925;-69
2021/08/01 00:27:46;;;;;;;;;;;;;;;21.05;82.22;99195.56;4808313;29;19925;-69
2021/08/01 00:30:14;;;;;;;;;;;;;;;21.01;82.34;99183.66;4807591;29;19974;-69
2021/08/01 00:32:44;;;;;;;;;;;;;;;20.90;82.89;99174.72;4807570;29;19932;-68
2021/08/01 00:35:12;;;;;;;;;;;;;;;20.83;83.39;99158.63;4807589;29;19925;-68
2021/08/01 00:37:41;;;;;;;;;;;;;;;20.82;83.69;99156.97;4807525;29;19932;-68
2021/08/01 00:40:11;;;;;;;;;;;;;;;20.78;84.25;99137.25;4807322;29;19954;-68
2021/08/01 00:42:43;;;;;;;;;;;;;;;20.74;84.63;99086.47;4806572;29;19925;-68
2021/08/01 00:45:12;;;;;;;;;;;;;;;20.73;84.70;99007.00;4806332;29;19925;-68
2021/08/01 00:47:44;;;;;;;;;;;;;;;20.68;85.16;98968.31;4807312;29;19925;-68
2021/08/01 00:50:13;;;;;;;;;;;;;;;20.68;85.34;98967.50;4807437;29;20380;-70
2021/08/01 00:52:47;;;;;;;;;;;;;;;20.73;85.41;98974.09;4807225;29;19925;-69
2021/08/01 00:55:19;;;;;;;;;;;;;;;20.67;85.62;98981.34;4807256;29;19929;-69
2021/08/01 00:57:54;;;;;;;;;;;;;;;20.72;85.94;98974.19;4791172;29;19936;-69
2021/08/01 01:00:37;;;;;;;;;;;;;;;20.72;85.92;98961.22;4807276;29;20437;-69
2021/08/01 01:03:12;;;;;;;;;;;;;;;20.71;85.92;98960.38;4806563;29;19932;-69
2021/08/01 01:05:47;;;;;;;;;;;;;;;20.72;85.73;98948.25;4807397;29;20057;-70
2021/08/01 01:08:25;;;;;;;;;;;;;;;20.64;86.04;98924.47;4807387;29;19925;-69
2021/08/01 01:11:22;;;;;;;;;;;;;;;20.61;85.92;98924.66;4786952;30;19961;-70
2021/08/01 01:13:58;;;;;;;;;;;;;;;20.61;86.09;98920.28;4805716;29;19929;-69
2021/08/01 01:16:31;;;;;;;;;;;;;;;20.67;86.11;98919.13;4805322;29;19932;-70
2021/08/01 01:19:04;;;;;;;;;;;;;;;20.77;85.96;98942.81;4807468;29;19925;-69
2021/08/01 01:21:51;;;;;;;;;;;;;;;20.80;86.14;98938.31;4806909;29;20363;-69
2021/08/01 01:24:24;;;;;;;;;;;;;;;20.88;86.24;98940.44;4807373;29;20023;-69
2021/08/01 01:27:10;;;;;;;;;;;;;;;20.91;85.85;98941.13;4807154;29;19936;-69
2021/08/01 01:29:49;;;;;;;;;;;;;;;20.92;85.59;98945.41;4807158;29;19925;-70
2021/08/01 01:32:25;;;;;;;;;;;;;;;20.94;85.83;98937.53;4806821;29;20471;-69
2021/08/01 01:35:00;;;;;;;;;;;;;;;20.99;85.65;98933.78;4806892;29;20451;-70
2021/08/01 01:37:34;;;;;;;;;;;;;;;21.05;85.54;98927.44;4805597;29;20012;-70
2021/08/01 01:40:11;;;;;;;;;;;;;;;21.09;85.84;98921.97;4807042;29;19925;-69
2021/08/01 01:42:43;;;;;;;;;;;;;;;21.12;85.87;98921.81;4807320;29;19932;-69
2021/08/01 01:45:18;;;;;;;;;;;;;;;21.16;85.74;98922.50;4807192;29;19925;-69
2021/08/01 01:47:51;;;;;;;;;;;;;;;21.16;85.76;98938.88;4807253;29;19939;-69
2021/08/01 01:50:22;;;;;;;;;;;;;;;21.18;85.63;98937.06;4790612;29;19964;-69
2021/08/01 01:52:55;;;;;;;;;;;;;;;21.16;85.15;98925.91;4805641;29;19978;-69
2021/08/01 01:55:27;;;;;;;;;;;;;;;21.15;85.26;98937.22;4806922;29;20035;-70
2021/08/01 01:57:58;;;;;;;;;;;;;;;21.06;85.30;98935.16;4805891;29;20027;-69
2021/08/01 02:00:27;;;;;;;;;;;;;;;21.06;85.39;98936.91;4806860;29;19973;-69
2021/08/01 02:03:14;;;;;;;;;;;;;;;21.10;85.32;98931.47;4806603;29;19925;-69
2021/08/01 02:05:54;;;;;;;;;;;;;;;21.11;85.26;98925.34;4790361;29;20005;-69
2021/08/01 02:08:48;;;;;;;;;;;;;;;21.11;85.00;98919.31;4806088;29;19925;-69
2021/08/01 02:11:31;;;;;;;;;;;;;;;21.04;85.30;98918.78;4790405;29;19931;-69
2021/08/01 02:14:13;;;;;;;;;;;;;;;21.04;85.05;98925.75;4805414;29;19925;-69
2021/08/01 02:16:45;;;;;;;;;;;;;;;21.02;84.90;98930.19;4806680;29;19982;-69
2021/08/01 02:19:18;;;;;;;;;;;;;;;21.01;85.14;98918.97;4806478;29;20015;-69
2021/08/01 02:21:51;;;;;;;;;;;;;;;21.00;84.94;98917.28;4790683;29;19978;-69
2021/08/01 02:24:22;;;;;;;;;;;;;;;21.01;85.09;98913.78;4807010;29;20380;-69
2021/08/01 02:26:52;;;;;;;;;;;;;;;20.97;85.33;98922.63;4807032;29;19931;-68
2021/08/01 02:29:22;;;;;;;;;;;;;;;20.97;85.29;98920.03;4809461;29;20345;-69
2021/08/01 02:31:51;;;;;;;;;;;;;;;20.96;85.19;98920.97;4809701;29;19951;-69
2021/08/01 02:34:30;;;;;;;;;;;;;;;20.96;85.14;98914.94;4809921;29;19925;-69
2021/08/01 02:37:00;;;;;;;;;;;;;;;20.94;85.17;98904.66;4793576;29;19936;-69
2021/08/01 02:39:32;;;;;;;;;;;;;;;20.96;84.98;98899.38;4808380;29;19929;-69
2021/08/01 02:42:02;;;;;;;;;;;;;;;20.95;85.09;98895.09;4808719;29;19925;-69
2021/08/01 02:44:33;;;;;;;;;;;;;;;20.93;85.01;98892.59;4808380;29;19932;-69
2021/08/01 02:47:06;;;;;;;;;;;;;;;20.91;84.92;98885.81;4809652;29;20343;-69
2021/08/01 02:49:39;;;;;;;;;;;;;;;20.88;84.99;98876.44;4808328;29;19925;-69
2021/08/01 02:52:11;;;;;;;;;;;;;;;20.91;85.09;98860.72;4810262;29;20354;-69
2021/08/01 02:54:41;;;;;;;;;;;;;;;20.93;84.99;98847.63;4809649;29;19925;-69
2021/08/01 02:57:12;;;;;;;;;;;;;;;20.92;84.85;98843.41;4809678;29;19929;-69
2021/08/01 02:59:42;;;;;;;;;;;;;;;20.86;84.94;98841.97;4808107;29;20338;-69
2021/08/01 03:02:12;;;;;;;;;;;;;;;20.85;84.77;98855.84;4809118;29;20020;-69
2021/08/01 03:04:51;;;;;;;;;;;;;;;20.77;84.84;98878.81;4808331;29;19929;-69
2021/08/01 03:07:20;;;;;;;;;;;;;;;20.78;84.81;98896.03;4807881;29;20299;-69
2021/08/01 03:09:53;;;;;;;;;;;;;;;20.72;84.62;98886.00;4808523;29;20292;-69
2021/08/01 03:12:22;;;;;;;;;;;;;;;20.70;84.78;98887.84;4809033;29;19931;-69
2021/08/01 03:14:52;;;;;;;;;;;;;;;20.75;84.69;98885.84;4808394;29;19925;-69
2021/08/01 03:17:21;;;;;;;;;;;;;;;20.70;84.70;98904.25;4807751;29;19932;-69
2021/08/01 03:19:49;;;;;;;;;;;;;;;20.72;84.74;98901.56;4792606;29;19925;-69
2021/08/01 03:22:19;;;;;;;;;;;;;;;20.68;84.62;98890.50;4807914;29;19979;-69
2021/08/01 03:24:48;;;;;;;;;;;;;;;20.71;84.62;98887.75;4807621;29;19932;-69
2021/08/01 03:27:23;;;;;;;;;;;;;;;20.74;84.75;98876.38;4792903;29;19951;-69
2021/08/01 03:29:52;;;;;;;;;;;;;;;20.73;84.83;98872.13;4809047;29;19932;-69
2021/08/01 03:32:22;;;;;;;;;;;;;;;20.72;84.85;98875.63;4808929;29;20431;-69
2021/08/01 03:34:56;;;;;;;;;;;;;;;20.74;84.70;98868.59;4808952;29;19924;-69
2021/08/01 03:37:28;;;;;;;;;;;;;;;20.71;84.70;98858.38;4792741;29;19929;-69
2021/08/01 03:40:09;;;;;;;;;;;;;;;20.59;84.54;98874.59;4808010;29;19925;-69
2021/08/01 03:42:40;;;;;;;;;;;;;;;20.61;84.79;98888.34;4808488;29;20025;-69
2021/08/01 03:45:09;;;;;;;;;;;;;;;20.65;85.09;98905.41;4808478;29;19978;-69
2021/08/01 03:47:38;;;;;;;;;;;;;;;20.62;84.70;98926.31;4808437;29;19991;-68
2021/08/01 03:50:07;;;;;;;;;;;;;;;20.67;84.86;98919.13;4808349;29;19925;-69
2021/08/01 03:52:36;;;;;;;;;;;;;;;20.72;85.05;98911.94;4808332;29;19931;-69
2021/08/01 03:55:06;;;;;;;;;;;;;;;20.80;84.93;98908.94;4808245;29;19954;-69
2021/08/01 03:57:34;;;;;;;;;;;;;;;20.78;84.79;98906.38;4808506;29;19933;-69
2021/08/01 04:00:06;;;;;;;;;;;;;;;20.67;84.97;98907.00;4808320;29;19928;-69
2021/08/01 04:02:40;;;;;;;;;;;;;;;20.65;85.06;98892.44;4808072;29;19925;-69
2021/08/01 04:05:10;;;;;;;;;;;;;;;20.63;85.05;98899.47;4808716;29;20287;-69
2021/08/01 04:07:39;;;;;;;;;;;;;;;20.61;85.20;98909.09;4808007;29;19925;-69
2021/08/01 04:10:08;;;;;;;;;;;;;;;20.62;85.01;98926.31;4808292;29;20395;-69
2021/08/01 04:12:37;;;;;;;;;;;;;;;20.48;85.01;98933.97;4807936;29;19925;-69
2021/08/01 04:15:09;;;;;;;;;;;;;;;20.39;85.42;98950.88;4808235;29;19982;-69
2021/08/01 04:17:37;;;;;;;;;;;;;;;20.32;85.57;98959.03;4807909;29;19932;-69
2021/08/01 04:20:07;;;;;;;;;;;;;;;20.19;85.75;98957.94;4808069;29;20417;-68
2021/08/01 04:22:35;;;;;;;;;;;;;;;20.05;85.74;98962.09;4808022;29;19932;-69
2021/08/01 04:25:05;;;;;;;;;;;;;;;20.14;86.49;98936.63;4808048;29;19950;-68
2021/08/01 04:27:34;;;;;;;;;;;;;;;20.23;86.57;98920.66;4807849;29;19925;-68
2021/08/01 04:30:03;;;;;;;;;;;;;;;20.23;86.67;98918.06;4807678;29;20395;-69
2021/08/01 04:32:33;;;;;;;;;;;;;;;20.21;86.85;98940.56;4807915;29;19929;-68
2021/08/01 04:35:02;;;;;;;;;;;;;;;20.23;86.85;98939.59;4807608;29;19929;-68
2021/08/01 04:37:31;;;;;;;;;;;;;;;20.18;86.61;98951.09;4807501;29;19932;-69
2021/08/01 04:40:00;;;;;;;;;;;;;;;19.98;86.80;98942.59;4807775;29;19925;-69
2021/08/01 04:42:28;;;;;;;;;;;;;;;20.02;86.91;98954.47;4807675;29;19954;-69
2021/08/01 04:44:57;;;;;;;;;;;;;;;20.18;87.13;98948.50;4807743;29;19932;-69
2021/08/01 04:47:26;;;;;;;;;;;;;;;20.24;87.08;98945.63;4807406;29;20016;-69
2021/08/01 04:49:56;;;;;;;;;;;;;;;20.32;87.25;98951.25;4807487;29;19982;-69
2021/08/01 04:52:25;;;;;;;;;;;;;;;20.38;87.29;98958.69;4806999;29;19932;-69
2021/08/01 04:54:54;;;;;;;;;;;;;;;20.40;87.17;98967.22;4807845;29;20023;-70
2021/08/01 04:57:22;;;;;;;;;;;;;;;20.43;87.30;98995.59;4807523;29;19995;-69
2021/08/01 04:59:51;;;;;;;;;;;;;;;20.40;87.06;99004.38;4807772;29;20322;-70
2021/08/01 05:02:22;;;;;;;;;;;;;;;20.30;87.06;99017.91;4806944;29;20016;-70
2021/08/01 05:04:51;;;;;;;;;;;;;;;20.27;87.12;99049.16;4807473;29;19932;-69
2021/08/01 05:07:21;;;;;;;;;;;;;;;20.12;87.14;99052.47;4807685;29;20379;-70
2021/08/01 05:09:49;;;;;;;;;;;;;;;19.91;87.21;99029.31;4806293;29;20023;-69
2021/08/01 05:12:18;;;;;;;;;;;;;;;19.74;87.39;98982.66;4807364;29;19925;-69
2021/08/01 05:14:47;;;;;;;;;;;;;;;19.72;88.00;98896.47;4807301;29;19971;-69
2021/08/01 05:17:16;;;;;;;;;;;;;;;19.82;88.28;98910.59;4806923;29;19925;-69
2021/08/01 05:19:45;;;;;;;;;;;;;;;19.93;88.64;98879.81;4807247;29;19974;-70
2021/08/01 05:22:14;;;;;;;;;;;;;;;20.00;88.89;98868.22;4807188;29;20295;-71
2021/08/01 05:24:44;;;;;;;;;;;;;;;20.07;89.05;98848.00;4806956;29;19949;-70
2021/08/01 05:27:13;;;;;;;;;;;;;;;20.13;88.93;98823.53;4806957;29;19982;-70
2021/08/01 05:29:41;;;;;;;;;;;;;;;20.17;88.95;98817.25;4807169;29;20027;-70
2021/08/01 05:32:10;;;;;;;;;;;;;;;20.17;88.96;98827.63;4807167;29;20032;-70
2021/08/01 05:34:38;;;;;;;;;;;;;;;20.11;88.68;98825.38;4806812;29;19954;-70
2021/08/01 05:37:07;;;;;;;;;;;;;;;20.05;88.52;98832.56;4790596;29;20402;-70
2021/08/01 05:39:36;;;;;;;;;;;;;;;20.10;88.69;98828.88;4806819;29;19975;-70
2021/08/01 05:42:07;;;;;;;;;;;;;;;20.14;88.64;98840.75;4806662;29;20341;-70
2021/08/01 05:44:35;;;;;;;;;;;;;;;20.13;88.60;98865.00;4806747;29;19925;-70
2021/08/01 05:47:06;;;;;;;;;;;;;;;20.15;88.73;98884.72;4806795;29;20020;-70
2021/08/01 05:49:35;;;;;;;;;;;;;;;20.11;88.40;98905.69;4806739;29;19925;-71
2021/08/01 05:52:04;;;;;;;;;;;;;;;20.10;88.47;98844.41;4790567;29;20436;-71
2021/08/01 05:54:33;;;;;;;;;;;;;;;20.06;88.60;98808.31;4806710;29;19979;-71
2021/08/01 05:57:02;;;;;;;;;;;;;;;20.10;88.48;98787.41;4806984;29;19989;-71
2021/08/01 05:59:32;;;;;;;;;;;;;;;20.06;88.61;98746.13;4807226;29;20023;-70
2021/08/01 06:02:01;;;;;;;;;;;;;;;20.11;88.78;98708.78;4807247;29;19990;-73
2021/08/01 06:04:31;;;;;;;;;;;;;;;20.18;88.59;98760.16;4810469;29;19974;-71
2021/08/01 06:07:00;;;;;;;;;;;;;;;20.27;88.60;98800.34;4810262;29;20327;-70
2021/08/01 06:09:29;;;;;;;;;;;;;;;20.36;88.40;98815.38;4779238;29;19942;-72
2021/08/01 06:11:58;;;;;;;;;;;;;;;20.42;88.54;98838.41;4809937;29;20015;-72
2021/08/01 06:14:27;;;;;;;;;;;;;;;20.46;88.32;98821.75;4810162;29;19929;-71
2021/08/01 06:16:57;;;;;;;;;;;;;;;20.50;88.08;98792.97;4810256;29;19925;-71
2021/08/01 06:19:26;;;;;;;;;;;;;;;20.61;87.99;98784.63;4810614;29;19925;-71
2021/08/01 06:21:54;;;;;;;;;;;;;;;20.74;87.99;98770.03;4809738;29;19929;-71
2021/08/01 06:24:23;;;;;;;;;;;;;;;20.85;87.80;98752.09;4809768;29;20008;-71
2021/08/01 06:26:51;;;;;;;;;;;;;;;20.96;87.75;98746.28;4810015;29;19931;-71
2021/08/01 06:29:20;;;;;;;;;;;;;;;21.08;87.69;98750.81;4809706;29;19932;-71
2021/08/01 06:31:49;;;;;;;;;;;;;;;21.19;87.62;98731.09;4809903;29;19931;-71
2021/08/01 06:34:19;;;;;;;;;;;;;;;21.27;87.23;98726.28;4809628;29;19975;-71
2021/08/01 06:36:47;;;;;;;;;;;;;;;21.35;86.79;98720.63;4809863;29;19958;-71
2021/08/01 06:39:16;;;;;;;;;;;;;;;21.39;86.24;98706.53;4809498;29;19931;-71
2021/08/01 06:41:45;;;;;;;;;;;;;;;21.41;85.58;98699.50;4809375;29;19933;-71
2021/08/01 06:44:14;;;;;;;;;;;;;;;21.48;85.46;98707.72;4809680;29;20288;-71
2021/08/01 06:46:42;;;;;;;;;;;;;;;21.51;85.36;98710.16;4809375;29;19931;-71
2021/08/01 06:49:11;;;;;;;;;;;;;;;21.53;85.44;98739.44;4809311;29;19974;-70
2021/08/01 06:51:42;;;;;;;;;;;;;;;21.58;85.42;98724.44;4809324;29;19981;-70
2021/08/01 06:54:11;;;;;;;;;;;;;;;21.62;85.30;98718.16;4808091;29;19932;-70
2021/08/01 06:56:39;;;;;;;;;;;;;;;21.67;84.95;98736.84;4809249;29;20445;-70
2021/08/01 06:59:08;;;;;;;;;;;;;;;21.69;84.92;98735.03;4809151;29;19929;-71
2021/08/01 07:01:38;;;;;;;;;;;;;;;21.71;84.20;98747.00;4808831;29;19982;-71
2021/08/01 07:04:07;;;;;;;;;;;;;;;21.73;83.89;98754.69;4809157;29;20020;-71
2021/08/01 07:06:36;;;;;;;;;;;;;;;21.81;84.05;98768.06;4809259;29;19931;-71
2021/08/01 07:09:06;;;;;;;;;;;;;;;21.80;84.24;98768.97;4809037;29;19929;-70
2021/08/01 07:11:34;;;;;;;;;;;;;;;21.76;84.38;98747.53;4809289;29;19933;-71
2021/08/01 07:14:07;;;;;;;;;;;;;;;21.79;84.37;98756.88;4808786;29;19929;-71
2021/08/01 07:16:42;;;;;;;;;;;;;;;21.80;84.23;98748.19;4808941;29;19964;-71
2021/08/01 07:19:11;;;;;;;;;;;;;;;21.81;84.09;98755.88;4809144;29;19925;-70
2021/08/01 07:21:39;;;;;;;;;;;;;;;21.88;83.73;98757.19;4808850;29;20019;-71
2021/08/01 07:24:10;;;;;;;;;;;;;;;21.89;83.44;98779.66;4809074;29;19941;-71
2021/08/01 07:26:38;;;;;;;;;;;;;;;21.91;83.30;98785.59;4809098;29;19927;-71
2021/08/01 07:29:07;;;;;;;;;;;;;;;21.87;83.05;98783.28;4807540;29;19929;-71
2021/08/01 07:31:35;;;;;;;;;;;;;;;21.90;83.40;98790.91;4808981;29;20284;-71
2021/08/01 07:34:04;;;;;;;;;;;;;;;21.95;83.17;98807.06;4808614;29;19929;-71
2021/08/01 07:36:33;;;;;;;;;;;;;;;22.03;83.17;98808.25;4792364;29;19929;-71
2021/08/01 07:39:02;;;;;;;;;;;;;;;22.11;83.16;98844.16;4808579;29;19975;-71
2021/08/01 07:41:33;;;;;;;;;;;;;;;22.18;83.38;98884.47;4807279;29;20369;-70
2021/08/01 07:44:01;;;;;;;;;;;;;;;22.09;83.37;98916.22;4808736;29;19931;-71
2021/08/01 07:46:30;;;;;;;;;;;;;;;21.94;83.51;98930.09;4807189;29;19925;-70
2021/08/01 07:48:59;;;;;;;;;;;;;;;21.74;83.70;98935.63;4808651;29;19925;-71
2021/08/01 07:51:27;;;;;;;;;;;;;;;21.70;84.07;98934.09;4808853;29;19932;-71
2021/08/01 07:53:56;;;;;;;;;;;;;;;21.68;84.19;98925.56;4808639;29;20266;-71
2021/08/01 07:56:24;;;;;;;;;;;;;;;21.67;84.00;98910.88;4808546;29;19929;-71
2021/08/01 07:58:54;;;;;;;;;;;;;;;21.67;83.75;98922.13;4808189;29;19964;-71
2021/08/01 08:01:23;;;;;;;;;;;;;;;21.73;83.65;98923.53;4808289;29;20020;-71
2021/08/01 08:03:52;;;;;;;;;;;;;;;21.70;83.53;98923.69;4791982;29;19929;-71
2021/08/01 08:06:21;;;;;;;;;;;;;;;21.55;83.44;98914.19;4808308;29;20019;-71
2021/08/01 08:08:49;;;;;;;;;;;;;;;21.51;83.27;98902.31;4808072;29;19925;-70
2021/08/01 08:11:18;;;;;;;;;;;;;;;21.54;82.95;98860.59;4808117;29;19925;-70
2021/08/01 08:13:47;;;;;;;;;;;;;;;21.69;82.50;98841.53;4807906;29;20431;-71
2021/08/01 08:16:17;;;;;;;;;;;;;;;21.96;82.13;98842.47;4807891;29;19925;-71
2021/08/01 08:18:46;;;;;;;;;;;;;;;22.21;81.88;98842.69;4807908;29;19929;-70
2021/08/01 08:21:14;;;;;;;;;;;;;;;22.33;80.73;98841.94;4807792;29;19931;-70
2021/08/01 08:23:43;;;;;;;;;;;;;;;22.35;80.28;98840.06;4807938;29;19932;-70
2021/08/01 08:26:12;;;;;;;;;;;;;;;22.50;79.88;98826.13;4808239;29;19932;-71
2021/08/01 08:28:41;;;;;;;;;;;;;;;22.73;79.82;98808.22;4807705;29;20016;-71
2021/08/01 08:31:10;;;;;;;;;;;;;;;22.70;79.14;98793.63;4807613;29;19983;-71
2021/08/01 08:33:40;;;;;;;;;;;;;;;22.70;79.15;98809.25;4807662;29;20330;-70
2021/08/01 08:36:08;;;;;;;;;;;;;;;22.59;78.79;98812.53;4807810;29;19925;-71
2021/08/01 08:38:37;;;;;;;;;;;;;;;22.37;78.31;98819.16;4807833;29;19955;-71
2021/08/01 08:41:06;;;;;;;;;;;;;;;22.20;78.30;98804.59;4807645;29;19975;-71
2021/08/01 08:43:35;;;;;;;;;;;;;;;22.17;78.57;98783.97;4807675;29;20364;-71
2021/08/01 08:46:04;;;;;;;;;;;;;;;22.30;78.96;98774.50;4807316;29;19951;-74
2021/08/01 08:48:33;;;;;;;;;;;;;;;22.28;78.43;98775.53;4791866;29;19964;-72
2021/08/01 08:51:05;;;;;;;;;;;;;;;22.42;78.53;98788.50;4807332;29;19974;-71
2021/08/01 08:53:34;;;;;;;;;;;;;;;22.40;78.43;98786.00;4807821;29;19925;-71
2021/08/01 08:56:03;;;;;;;;;;;;;;;22.33;78.36;98789.91;4807304;29;19974;-72
2021/08/01 08:58:34;;;;;;;;;;;;;;;22.34;78.32;98781.16;4807786;29;19932;-72
2021/08/01 09:01:04;;;;;;;;;;;;;;;22.32;78.43;98796.03;4791123;29;19925;-72
2021/08/01 09:03:33;;;;;;;;;;;;;;;22.29;78.26;98778.03;4806918;29;19980;-71
2021/08/01 09:06:02;;;;;;;;;;;;;;;22.34;78.16;98773.38;4807661;29;20391;-72
2021/08/01 09:08:32;;;;;;;;;;;;;;;22.34;77.85;98760.38;4807137;29;19929;-72
2021/08/01 09:11:01;;;;;;;;;;;;;;;22.56;77.86;98750.28;4807320;29;19931;-71
2021/08/01 09:13:40;;;;;;;;;;;;;;;22.74;77.32;98752.66;4807623;29;19925;-72
2021/08/01 09:16:09;;;;;;;;;;;;;;;22.67;76.49;98742.63;4807242;29;19932;-72
2021/08/01 09:18:37;;;;;;;;;;;;;;;22.84;76.37;98733.75;4807291;29;19932;-73
2021/08/01 09:21:06;;;;;;;;;;;;;;;;;;4806856;29;19925;-71
2021/08/01 09:23:36;;;;;;;;;;;;;;;23.26;75.48;98735.25;4806947;29;19929;-71
2021/08/01 09:26:06;;;;;;;;;;;;;;;23.30;75.41;98736.72;4807048;29;19986;-71
2021/08/01 09:28:35;;;;;;;;;;;;;;;23.30;75.62;98731.50;4807057;29;20024;-72
2021/08/01 09:31:04;;;;;;;;;;;;;;;23.10;75.48;98693.81;4807488;29;19925;-71
2021/08/01 09:33:37;;;;;;;;;;;;;;;23.14;74.79;98691.81;4806857;29;19960;-72
2021/08/01 09:36:09;;;;;;;;;;;;;;;23.49;74.41;98689.47;4807168;29;19964;-72
2021/08/01 09:38:51;;;;;;;;;;;;;;;23.83;73.64;98678.31;4810201;29;19925;-71
2021/08/01 09:41:21;;;;;;;;;;;;;;;23.91;72.23;98661.22;4792389;29;19926;-72
2021/08/01 09:43:50;;;;;;;;;;;;;;;24.07;71.63;98655.75;4792418;30;20424;-72
2021/08/01 09:46:19;;;;;;;;;;;;;;;24.30;70.38;98646.28;4806371;29;19980;-72
2021/08/01 09:49:08;;;;;;;;;;;;;;;24.38;69.53;98649.13;4792466;30;19925;-72
2021/08/01 09:51:38;;;;;;;;;;;;;;;24.52;69.19;98638.53;4792659;30;19930;-72
2021/08/01 09:54:09;;;;;;;;;;;;;;;24.62;68.41;98637.72;4806294;29;19929;-72
2021/08/01 09:56:38;;;;;;;;;;;;;;;24.69;67.50;98643.31;4792129;30;19937;-72
2021/08/01 09:59:18;;;;;;;;;;;;;;;24.83;67.14;98637.13;4792087;30;20091;-72
2021/08/01 10:01:50;;;;;;;;;;;;;;;25.10;67.03;98645.44;4802376;29;19929;-71
2021/08/01 10:04:22;;;;;;;;;;;;;;;25.30;66.43;98634.31;4804163;29;20379;-72
2021/08/01 10:07:01;;;;;;;;;;;;;;;25.52;66.27;98617.81;4810072;29;19932;-72
2021/08/01 10:09:32;;;;;;;;;;;;;;;25.56;65.09;98596.53;4807642;29;19929;-72
2021/08/01 10:12:03;;;;;;;;;;;;;;;25.67;64.87;98590.47;4809173;29;19955;-71
2021/08/01 10:14:33;;;;;;;;;;;;;;;25.81;64.75;98587.59;4808411;29;19925;-71
2021/08/01 10:17:02;;;;;;;;;;;;;;;25.75;64.55;98578.44;4806842;29;19929;-73
2021/08/01 10:19:31;;;;;;;;;;;;;;;25.64;63.83;98560.19;4806700;29;19974;-70
2021/08/01 10:22:00;;;;;;;;;;;;;;;25.80;64.69;98557.16;4808858;29;20019;-70
2021/08/01 10:24:31;;;;;;;;;;;;;;;25.83;64.12;98543.84;4806226;29;19929;-72
2021/08/01 10:27:03;;;;;;;;;;;;;;;25.91;64.00;98541.44;4791840;30;20033;-72
2021/08/01 10:29:34;;;;;;;;;;;;;;;26.06;64.06;98534.94;4806715;29;20289;-71
2021/08/01 10:32:05;;;;;;;;;;;;;;;26.27;63.90;98528.00;4806845;29;19925;-72
2021/08/01 10:34:38;;;;;;;;;;;;;;;26.50;62.88;98521.66;4805404;29;19947;-70
2021/08/01 10:37:08;;;;;;;;;;;;;;;26.79;62.70;98523.63;4808970;29;19936;-72
2021/08/01 10:39:41;;;;;;;;;;;;;;;26.97;62.41;98519.44;4806834;29;20367;-70
2021/08/01 10:42:11;;;;;;;;;;;;;;;26.95;61.15;98497.75;4807615;29;20135;-73
2021/08/01 10:44:40;;;;;;;;;;;;;;;26.93;61.12;98495.28;4806491;29;20020;-71
2021/08/01 10:47:09;;;;;;;;;;;;;;;27.06;59.83;98489.81;4808778;29;19925;-73
2021/08/01 10:49:40;;;;;;;;;;;;;;;27.07;59.78;98481.81;4805471;29;20376;-72
2021/08/01 10:52:10;;;;;;;;;;;;;;;27.19;59.70;98480.75;4807856;29;19933;-72
2021/08/01 10:54:52;;;;;;;;;;;;;;;27.31;59.35;98484.06;4807821;29;20008;-72
2021/08/01 10:57:22;;;;;;;;;;;;;;;27.45;58.12;98475.03;4810283;29;19987;-72
2021/08/01 11:00:03;;;;;;;;;;;;;;;27.59;58.11;98474.63;4806048;29;19960;-72
2021/08/01 11:02:33;;;;;;;;;;;;;;;27.56;57.96;98467.88;4809068;29;20008;-72
2021/08/01 11:05:17;;;;;;;;;;;;;;;27.78;57.51;98457.09;4802368;29;19933;-72
2021/08/01 11:07:56;;;;;;;;;;;;;;;27.72;57.71;98447.16;4803588;29;19925;-71
2021/08/01 11:10:25;;;;;;;;;;;;;;;27.91;57.78;98446.31;4804694;29;20351;-71
2021/08/01 11:12:55;;;;;;;;;;;;;;;28.00;57.13;98440.28;4807047;29;20360;-71
2021/08/01 11:15:39;;;;;;;;;;;;;;;28.16;57.32;98444.94;4808977;29;20015;-71
2021/08/01 11:18:09;;;;;;;;;;;;;;;28.49;56.95;98447.03;4806713;29;20004;-70
2021/08/01 11:20:53;;;;;;;;;;;;;;;28.67;56.65;98429.59;4805532;29;19925;-71
2021/08/01 11:23:46;;;;;;;;;;;;;;;28.49;56.91;98419.00;4804478;29;19932;-73
2021/08/01 11:26:36;;;;;;;;;;;;;;;28.32;56.26;98408.41;4790801;30;19925;-71
2021/08/01 11:29:16;;;;;;;;;;;;;;;28.14;56.00;98420.63;4803683;29;20019;-73
2021/08/01 11:32:06;;;;;;;;;;;;;;;28.13;56.67;98434.69;4802163;29;20379;-76
2021/08/01 11:35:21;;;;;;;;;;;;;;;27.91;56.75;98420.91;4802890;29;19929;-71
2021/08/01 11:38:14;;;;;;;;;;;;;;;27.76;56.99;98430.16;4791073;29;19932;-72
2021/08/01 11:40:50;;;;;;;;;;;;;;;27.47;57.19;98442.47;4792377;29;19948;-71
2021/08/01 11:43:25;;;;;;;;;;;;;;;27.42;57.77;98457.78;4808526;29;19925;-71
2021/08/01 11:46:12;;;;;;;;;;;;;;;27.32;57.23;98459.53;4808343;29;19925;-71
2021/08/01 11:48:43;;;;;;;;;;;;;;;27.30;57.65;98465.88;4803256;29;20303;-71
2021/08/01 11:51:24;;;;;;;;;;;;;;;27.15;57.44;98470.66;4790435;29;19931;-71
2021/08/01 11:53:52;;;;;;;;;;;;;;;27.19;57.63;98472.03;4806586;29;19925;-72
2021/08/01 11:56:21;;;;;;;;;;;;;;;27.18;58.05;98483.50;4805684;29;19932;-73
2021/08/01 11:58:54;;;;;;;;;;;;;;;27.17;58.35;98476.59;4808148;29;20015;-72
2021/08/01 12:01:24;;;;;;;;;;;;;;;27.14;59.06;98482.09;4792456;29;19926;-72
2021/08/01 12:03:53;;;;;;;;;;;;;;;27.00;59.54;98487.72;4803402;29;19929;-72
2021/08/01 12:06:31;;;;;;;;;;;;;;;26.95;59.53;98487.28;4804219;29;20329;-72
2021/08/01 12:09:00;;;;;;;;;;;;;;;26.77;59.96;98504.59;4804795;29;19947;-72
2021/08/01 12:11:28;;;;;;;;;;;;;;;26.60;60.13;98503.38;4804626;29;20376;-70
2021/08/01 12:14:09;;;;;;;;;;;;;;;26.47;60.90;98500.97;4806912;29;19929;-72
2021/08/01 12:16:51;;;;;;;;;;;;;;;26.42;62.12;98511.00;4803860;29;19929;-72
2021/08/01 12:19:20;;;;;;;;;;;;;;;26.37;60.84;98507.91;4804918;29;19924;-71
2021/08/01 12:21:50;;;;;;;;;;;;;;;26.36;61.50;98506.28;4805896;29;20002;-72
2021/08/01 12:24:29;;;;;;;;;;;;;;;26.33;62.42;98501.31;4805823;29;19925;-71
2021/08/01 12:26:59;;;;;;;;;;;;;;;26.43;61.75;98502.19;4805942;29;19967;-71
2021/08/01 12:29:28;;;;;;;;;;;;;;;26.53;61.39;98487.38;4805574;29;19936;-72
2021/08/01 12:31:58;;;;;;;;;;;;;;;26.57;61.77;98494.00;4805007;29;20020;-71
2021/08/01 12:34:27;;;;;;;;;;;;;;;26.51;61.69;98498.94;4803000;29;19929;-71
2021/08/01 12:36:56;;;;;;;;;;;;;;;26.47;62.98;98497.50;4806591;29;19974;-71
2021/08/01 12:39:25;;;;;;;;;;;;;;;26.41;62.73;98488.41;4806101;29;19964;-71
2021/08/01 12:42:01;;;;;;;;;;;;;;;26.33;63.34;98490.81;4805936;29;19974;-71
2021/08/01 12:44:30;;;;;;;;;;;;;;;26.26;64.06;98479.22;4807567;29;19925;-71
2021/08/01 12:47:07;;;;;;;;;;;;;;;26.18;64.78;98481.63;4807284;29;19981;-71
2021/08/01 12:49:36;;;;;;;;;;;;;;;26.16;64.82;98465.25;4791540;29;19929;-71
2021/08/01 12:52:05;;;;;;;;;;;;;;;26.15;65.29;98461.00;4807349;29;19932;-71
2021/08/01 12:54:34;;;;;;;;;;;;;;;26.12;64.63;98456.00;4791040;29;19925;-71
2021/08/01 12:57:06;;;;;;;;;;;;;;;26.09;65.39;98447.53;4807594;29;19925;-72
2021/08/01 12:59:35;;;;;;;;;;;;;;;26.14;65.60;98443.63;4807389;29;19925;-71
2021/08/01 13:02:06;;;;;;;;;;;;;;;26.06;66.39;98434.75;4807395;29;20284;-72
2021/08/01 13:04:41;;;;;;;;;;;;;;;26.17;66.23;98421.59;4807187;29;19925;-71
2021/08/01 13:07:10;;;;;;;;;;;;;;;26.24;66.37;98407.06;4776004;29;19925;-71
2021/08/01 13:09:39;;;;;;;;;;;;;;;26.30;65.42;98398.69;4807050;29;19956;-71